Time;durP1;ratioP1;P1;durP2;ratioP2;P2;SDS_P1;SDS_P2;PMS_P1;PMS_P2;Temp;Humidity;BMP_temperature;BMP_pressure;BME280_temperature;BME280_humidity;BME280_pressure;Samples;Min_cycle;Max_cycle;Signal;HPM_P1;HPM_P2
2023/10/22 04:00:54;;;;;;;1.50;0.90;;;12.10;84.60;;;;;;5823501;23;20535;-75
2023/10/22 04:03:21;;;;;;;2.00;1.00;;;12.10;84.50;;;;;;4994669;28;20434;-76
2023/10/22 04:05:55;;;;;;;1.90;1.10;;;12.10;84.50;;;;;;4994616;28;20445;-75
2023/10/22 04:08:22;;;;;;;1.50;1.00;;;12.20;84.20;;;;;;4995205;28;20522;-76
2023/10/22 04:10:49;;;;;;;1.80;1.20;;;12.30;84.00;;;;;;4994482;28;20841;-76
2023/10/22 04:13:15;;;;;;;1.40;0.90;;;12.40;83.40;;;;;;4994140;28;20806;-75
2023/10/22 04:15:42;;;;;;;1.57;1.00;;;12.40;83.40;;;;;;5091815;23;20512;-74
2023/10/22 04:18:10;;;;;;;1.60;1.00;;;12.40;83.40;;;;;;4995749;28;20444;-74
2023/10/22 04:20:37;;;;;;;1.53;1.10;;;12.30;83.40;;;;;;4995342;28;20437;-74
2023/10/22 04:23:03;;;;;;;1.93;0.80;;;12.30;83.50;;;;;;4995465;28;20470;-74
2023/10/22 04:25:35;;;;;;;2.00;0.97;;;12.20;83.50;;;;;;4995207;28;20488;-74
2023/10/22 04:28:02;;;;;;;1.60;1.00;;;12.10;83.80;;;;;;4995035;28;20426;-74
2023/10/22 04:30:28;;;;;;;1.30;0.80;;;12.20;84.00;;;;;;4995436;28;20456;-74
2023/10/22 04:32:55;;;;;;;1.83;0.90;;;12.10;83.60;;;;;;4995075;28;20452;-74
2023/10/22 04:35:23;;;;;;;1.40;1.10;;;12.10;83.80;;;;;;4995198;28;20452;-74
2023/10/22 04:37:53;;;;;;;1.90;1.13;;;12.00;84.10;;;;;;4995029;28;20441;-74
2023/10/22 04:40:20;;;;;;;2.17;0.90;;;12.00;84.20;;;;;;4995084;28;20445;-74
2023/10/22 04:42:46;;;;;;;1.60;1.10;;;12.00;84.10;;;;;;4994970;28;20449;-74
2023/10/22 04:45:13;;;;;;;2.13;1.10;;;12.00;84.00;;;;;;4994598;28;20485;-74
2023/10/22 04:47:40;;;;;;;1.53;1.00;;;11.90;84.50;;;;;;4994216;28;20452;-74
2023/10/22 04:50:07;;;;;;;1.80;1.27;;;11.90;84.20;;;;;;4994758;28;20449;-74
2023/10/22 04:52:35;;;;;;;1.80;1.20;;;11.90;84.10;;;;;;4994355;28;20463;-74
2023/10/22 04:55:02;;;;;;;1.60;1.10;;;11.80;84.50;;;;;;4994843;28;20549;-74
2023/10/22 04:57:29;;;;;;;1.60;1.00;;;11.70;84.60;;;;;;4994607;28;20896;-74
2023/10/22 04:59:56;;;;;;;1.97;1.10;;;11.50;85.30;;;;;;4994433;28;20820;-74
2023/10/22 05:02:23;;;;;;;1.63;1.10;;;11.50;85.60;;;;;;4994688;28;20452;-74
2023/10/22 05:04:52;;;;;;;1.80;1.10;;;11.40;86.20;;;;;;4994484;28;20488;-74
2023/10/22 05:07:19;;;;;;;1.60;0.90;;;11.40;85.90;;;;;;4994681;28;20887;-74
2023/10/22 05:09:47;;;;;;;3.00;1.10;;;11.50;85.40;;;;;;4994679;28;20474;-72
2023/10/22 05:12:13;;;;;;;1.30;0.90;;;11.50;85.40;;;;;;4994605;28;20517;-72
2023/10/22 05:14:40;;;;;;;1.60;0.93;;;11.50;84.90;;;;;;4994450;28;20448;-72
2023/10/22 05:17:07;;;;;;;1.57;1.00;;;11.40;85.00;;;;;;4994134;28;20472;-72
2023/10/22 05:19:34;;;;;;;2.23;1.10;;;11.30;85.30;;;;;;4994477;28;20449;-72
2023/10/22 05:22:00;;;;;;;1.70;1.10;;;11.30;85.10;;;;;;4994675;28;20490;-72
2023/10/22 05:24:27;;;;;;;2.07;1.20;;;11.30;84.90;;;;;;4994386;28;20489;-72
2023/10/22 05:26:55;;;;;;;1.43;0.90;;;11.50;84.60;;;;;;4994425;28;20481;-72
2023/10/22 05:29:22;;;;;;;1.80;1.10;;;11.60;83.90;;;;;;4994244;28;20446;-72
2023/10/22 05:31:50;;;;;;;1.53;1.00;;;11.70;83.70;;;;;;4994824;28;20447;-72
2023/10/22 05:34:16;;;;;;;1.37;0.90;;;11.80;83.10;;;;;;4994431;28;20441;-72
2023/10/22 05:36:43;;;;;;;1.70;1.20;;;11.80;82.70;;;;;;4994386;28;20475;-72
2023/10/22 05:39:10;;;;;;;2.00;1.00;;;11.90;82.50;;;;;;4994429;28;20452;-72
2023/10/22 05:41:37;;;;;;;2.13;1.03;;;11.90;82.70;;;;;;4994477;28;20477;-72
2023/10/22 05:44:05;;;;;;;1.63;1.00;;;12.00;81.90;;;;;;4994073;28;21018;-72
2023/10/22 05:46:33;;;;;;;1.40;1.00;;;11.90;81.30;;;;;;4994095;28;20465;-72
2023/10/22 05:48:59;;;;;;;1.50;0.80;;;11.70;81.90;;;;;;4993878;28;20828;-72
2023/10/22 05:51:26;;;;;;;2.00;1.27;;;11.70;81.80;;;;;;4994534;28;20445;-72
2023/10/22 05:53:53;;;;;;;1.83;1.17;;;11.60;81.50;;;;;;4994305;28;20449;-72
2023/10/22 05:56:23;;;;;;;1.90;0.97;;;11.50;82.30;;;;;;4994308;28;20469;-72
2023/10/22 05:58:50;;;;;;;1.87;1.23;;;11.60;82.30;;;;;;4994206;28;20449;-72
2023/10/22 06:01:18;;;;;;;1.70;1.00;;;11.60;82.00;;;;;;4996808;28;20452;-72
2023/10/22 06:03:44;;;;;;;1.60;1.10;;;11.70;81.50;;;;;;4997657;28;20824;-72
2023/10/22 06:06:11;;;;;;;1.40;1.00;;;11.80;81.40;;;;;;4997626;28;20495;-72
2023/10/22 06:08:38;;;;;;;1.90;0.97;;;11.80;80.90;;;;;;4997799;28;20472;-72
2023/10/22 06:11:05;;;;;;;2.07;1.10;;;11.90;80.80;;;;;;4997415;28;20460;-72
2023/10/22 06:13:32;;;;;;;2.00;1.30;;;11.90;80.30;;;;;;4997774;28;20485;-71
2023/10/22 06:15:59;;;;;;;1.50;0.90;;;11.90;80.50;;;;;;4997343;28;20919;-72
2023/10/22 06:18:27;;;;;;;1.20;0.70;;;11.90;80.70;;;;;;4997270;28;20524;-72
2023/10/22 06:20:53;;;;;;;1.50;0.90;;;12.00;80.10;;;;;;4997403;28;20448;-72
2023/10/22 06:23:22;;;;;;;2.10;1.03;;;11.90;80.20;;;;;;4997297;28;20456;-72
2023/10/22 06:25:48;;;;;;;1.83;1.00;;;12.10;80.20;;;;;;4996838;28;20528;-72
2023/10/22 06:28:15;;;;;;;1.70;1.00;;;12.00;80.30;;;;;;4996222;28;20969;-72
2023/10/22 06:30:42;;;;;;;1.50;0.90;;;12.10;80.40;;;;;;4996509;28;20476;-72
2023/10/22 06:33:09;;;;;;;1.50;1.00;;;12.00;80.10;;;;;;4996061;28;20969;-71
2023/10/22 06:35:37;;;;;;;3.00;0.90;;;12.50;79.90;;;;;;4996199;28;20882;-72
2023/10/22 06:38:03;;;;;;;1.50;0.90;;;13.40;78.30;;;;;;4995884;28;20966;-72
2023/10/22 06:40:30;;;;;;;1.57;0.90;;;14.70;73.80;;;;;;4996187;28;20449;-72
2023/10/22 06:42:57;;;;;;;1.60;0.80;;;16.00;70.50;;;;;;4996168;28;20452;-72
2023/10/22 06:45:24;;;;;;;2.37;1.10;;;17.40;66.40;;;;;;4995660;28;21012;-72
2023/10/22 06:47:51;;;;;;;1.40;0.90;;;18.50;64.50;;;;;;4996111;28;20874;-72
2023/10/22 06:50:17;;;;;;;1.77;1.03;;;19.70;60.90;;;;;;4996141;28;20449;-73
2023/10/22 06:52:45;;;;;;;1.30;0.90;;;20.90;58.80;;;;;;4996238;28;20508;-72
2023/10/22 06:55:12;;;;;;;2.17;1.20;;;22.10;55.40;;;;;;4996068;28;20442;-73
2023/10/22 06:57:40;;;;;;;1.50;0.80;;;23.10;53.40;;;;;;4996146;28;20441;-73
2023/10/22 07:00:09;;;;;;;1.20;0.70;;;24.10;50.40;;;;;;4996183;28;20965;-73
2023/10/22 07:02:36;;;;;;;1.60;0.80;;;24.70;47.70;;;;;;4996335;28;20453;-72
2023/10/22 07:05:04;;;;;;;1.43;1.00;;;24.70;48.20;;;;;;4996254;28;20516;-73
2023/10/22 07:07:30;;;;;;;2.13;1.00;;;24.10;48.80;;;;;;4996064;28;20445;-73
2023/10/22 07:09:58;;;;;;;2.13;0.80;;;24.50;48.40;;;;;;5010295;28;20421;-73
2023/10/22 07:12:26;;;;;;;1.93;0.90;;;24.50;48.70;;;;;;5016200;28;20429;-73
2023/10/22 07:14:53;;;;;;;1.50;0.90;;;25.00;47.40;;;;;;4999740;28;20445;-72
2023/10/22 07:17:20;;;;;;;1.60;0.70;;;24.90;46.80;;;;;;4998225;28;20492;-73
2023/10/22 07:19:47;;;;;;;1.30;0.80;;;24.70;48.00;;;;;;4999318;28;20871;-72
2023/10/22 07:22:13;;;;;;;1.40;0.70;;;24.70;47.30;;;;;;4998789;28;20437;-73
2023/10/22 07:24:40;;;;;;;1.50;0.80;;;24.70;48.60;;;;;;4997066;28;21029;-72
2023/10/22 07:27:08;;;;;;;1.50;0.90;;;25.50;46.90;;;;;;4995668;28;20836;-72
2023/10/22 07:29:35;;;;;;;1.27;0.70;;;25.70;46.40;;;;;;4995620;28;20454;-73
2023/10/22 07:32:01;;;;;;;1.60;0.80;;;27.10;44.80;;;;;;4995761;28;20449;-73
2023/10/22 07:34:30;;;;;;;1.30;0.83;;;27.60;43.40;;;;;;4995471;28;20448;-73
2023/10/22 07:36:56;;;;;;;1.50;0.90;;;28.50;41.30;;;;;;4995294;28;20469;-73
2023/10/22 07:39:23;;;;;;;1.30;0.87;;;27.50;43.70;;;;;;4998290;28;20445;-73
2023/10/22 07:41:50;;;;;;;1.40;0.70;;;27.30;44.10;;;;;;4998349;28;20441;-73
2023/10/22 07:44:18;;;;;;;1.43;0.80;;;27.40;43.20;;;;;;4997733;28;20453;-73
2023/10/22 07:46:44;;;;;;;1.47;0.87;;;26.60;44.30;;;;;;4997515;28;20475;-73
2023/10/22 07:49:12;;;;;;;1.50;1.00;;;26.30;44.70;;;;;;4998036;28;20452;-73
2023/10/22 07:51:38;;;;;;;1.30;0.80;;;26.80;45.30;;;;;;4997558;28;20818;-73
2023/10/22 07:54:05;;;;;;;1.87;1.30;;;26.80;44.30;;;;;;4997718;28;20445;-73
2023/10/22 07:56:34;;;;;;;1.63;1.20;;;25.90;46.10;;;;;;4997369;28;20469;-72
2023/10/22 07:59:00;;;;;;;2.00;1.00;;;25.40;46.50;;;;;;4996962;28;20488;-72
2023/10/22 08:01:28;;;;;;;1.60;1.00;;;24.90;47.00;;;;;;4997211;28;20468;-72
2023/10/22 08:03:55;;;;;;;1.60;1.00;;;23.80;48.90;;;;;;4996983;28;20465;-73
2023/10/22 08:06:22;;;;;;;1.70;1.00;;;23.00;50.30;;;;;;4996843;28;20491;-72
2023/10/22 08:08:48;;;;;;;2.33;1.10;;;21.50;53.90;;;;;;4996962;28;20796;-72
2023/10/22 08:11:15;;;;;;;1.80;0.90;;;19.90;57.00;;;;;;4997009;28;20445;-72
2023/10/22 08:13:42;;;;;;;1.97;1.00;;;18.70;59.90;;;;;;4997382;28;20449;-72
2023/10/22 08:16:09;;;;;;;1.40;0.80;;;18.10;61.40;;;;;;4995947;28;20974;-71
2023/10/22 08:18:37;;;;;;;2.17;1.10;;;17.50;62.70;;;;;;4997447;28;20453;-72
2023/10/22 08:21:06;;;;;;;2.67;0.97;;;17.10;64.00;;;;;;4996989;28;20446;-72
2023/10/22 08:23:33;;;;;;;2.10;1.53;;;16.50;66.40;;;;;;4995164;28;20460;-72
2023/10/22 08:26:00;;;;;;;1.97;1.00;;;16.20;68.00;;;;;;4994424;28;20493;-72
2023/10/22 08:28:26;;;;;;;2.10;0.80;;;16.10;67.70;;;;;;4994369;28;20445;-72
2023/10/22 08:30:53;;;;;;;1.50;0.93;;;16.00;67.80;;;;;;4994327;28;20504;-72
2023/10/22 08:33:20;;;;;;;2.20;1.37;;;16.30;68.10;;;;;;4994077;28;20811;-72
2023/10/22 08:35:48;;;;;;;1.63;0.90;;;15.80;67.50;;;;;;4994288;28;20469;-72
2023/10/22 08:38:15;;;;;;;1.47;0.97;;;15.80;69.30;;;;;;4994161;28;20449;-72
2023/10/22 08:40:43;;;;;;;1.60;1.10;;;15.80;69.90;;;;;;4994162;28;20476;-72
2023/10/22 08:43:16;;;;;;;1.37;0.90;;;15.60;68.90;;;;;;4994188;28;20950;-72
2023/10/22 08:45:45;;;;;;;1.40;0.90;;;15.10;70.30;;;;;;4994200;28;20902;-72
2023/10/22 08:48:13;;;;;;;1.73;1.00;;;15.00;70.50;;;;;;4993942;28;20464;-72
2023/10/22 08:50:44;;;;;;;2.07;1.20;;;14.90;71.10;;;;;;4994285;28;20453;-72
2023/10/22 08:53:14;;;;;;;1.87;0.90;;;14.90;71.60;;;;;;4994398;28;20524;-71
2023/10/22 08:55:45;;;;;;;2.17;1.17;;;14.70;71.30;;;;;;4994113;28;20852;-72
2023/10/22 08:58:14;;;;;;;1.40;0.90;;;14.70;71.30;;;;;;4994080;28;20496;-71
2023/10/22 09:00:45;;;;;;;2.30;1.20;;;14.70;72.60;;;;;;4994040;28;20449;-72
2023/10/22 09:03:12;;;;;;;1.93;0.80;;;14.60;71.40;;;;;;4994184;28;20429;-72
2023/10/22 09:05:39;;;;;;;1.50;1.00;;;14.60;71.20;;;;;;4993805;28;20535;-72
2023/10/22 09:08:06;;;;;;;1.60;0.87;;;14.60;72.10;;;;;;4994055;28;20507;-72
2023/10/22 09:10:36;;;;;;;1.83;0.90;;;14.70;72.70;;;;;;4993788;28;20959;-72
2023/10/22 09:13:13;;;;;;;3.47;1.20;;;14.90;71.90;;;;;;4994098;28;20532;-72
2023/10/22 09:15:42;;;;;;;2.00;0.90;;;14.80;70.90;;;;;;4993825;28;20476;-71
2023/10/22 09:18:08;;;;;;;1.50;0.83;;;14.70;71.20;;;;;;4994252;28;20433;-72
2023/10/22 09:20:35;;;;;;;1.30;0.83;;;14.60;71.30;;;;;;4993962;28;20444;-72
2023/10/22 09:23:19;;;;;;;4.13;1.10;;;14.70;72.20;;;;;;4994107;28;20453;-74
2023/10/22 09:25:48;;;;;;;1.70;0.97;;;14.90;72.10;;;;;;4994044;28;20500;-72
2023/10/22 09:28:17;;;;;;;1.80;1.00;;;15.00;71.10;;;;;;4993773;28;20938;-72
2023/10/22 09:30:44;;;;;;;2.13;1.10;;;15.00;70.60;;;;;;4994003;28;20464;-72
2023/10/22 09:33:11;;;;;;;2.93;1.50;;;15.10;71.20;;;;;;4993602;28;20947;-72
2023/10/22 09:35:38;;;;;;;1.73;1.20;;;15.10;70.20;;;;;;4997122;28;20460;-72
2023/10/22 09:38:05;;;;;;;1.87;1.03;;;15.10;70.20;;;;;;4997888;28;20453;-72
2023/10/22 09:40:34;;;;;;;2.40;1.30;;;15.10;71.00;;;;;;4997915;28;20444;-72
2023/10/22 09:43:04;;;;;;;1.53;1.00;;;15.20;69.80;;;;;;4997938;28;20532;-72
2023/10/22 09:45:31;;;;;;;1.70;0.90;;;15.40;71.10;;;;;;4997639;28;20503;-73
2023/10/22 09:48:05;;;;;;;4.07;1.10;;;15.40;69.40;;;;;;4998145;28;20823;-73
2023/10/22 09:50:33;;;;;;;1.50;1.03;;;15.40;69.30;;;;;;4997818;28;20485;-72
2023/10/22 09:53:03;;;;;;;1.90;1.10;;;15.40;69.50;;;;;;4997583;28;20831;-73
2023/10/22 09:55:32;;;;;;;2.40;1.10;;;15.40;69.80;;;;;;4997671;28;20465;-73
2023/10/22 09:57:59;;;;;;;2.73;1.60;;;15.40;69.80;;;;;;4997352;28;21005;-72
2023/10/22 10:00:28;;;;;;;2.27;1.00;;;15.40;68.60;;;;;;4997610;28;20444;-73
2023/10/22 10:02:57;;;;;;;1.43;0.80;;;15.50;68.40;;;;;;4997440;28;20453;-72
2023/10/22 10:05:24;;;;;;;1.50;0.80;;;15.50;68.60;;;;;;4997598;28;20484;-73
2023/10/22 10:07:51;;;;;;;2.90;1.00;;;15.60;69.10;;;;;;4997856;28;20539;-72
2023/10/22 10:10:18;;;;;;;2.77;1.10;;;15.70;67.90;;;;;;4997170;28;20820;-73
2023/10/22 10:12:45;;;;;;;1.50;1.07;;;15.80;68.10;;;;;;4997395;28;20445;-72
2023/10/22 10:15:35;;;;;;;1.87;1.10;;;15.70;68.20;;;;;;4997559;28;20460;-72
2023/10/22 10:18:02;;;;;;;4.30;1.30;;;15.50;68.60;;;;;;5018703;23;20608;-76
2023/10/22 10:20:31;;;;;;;1.70;1.20;;;15.50;68.70;;;;;;4996552;28;20441;-76
2023/10/22 10:23:06;;;;;;;3.10;1.17;;;15.70;68.50;;;;;;4996425;28;20821;-76
2023/10/22 10:25:34;;;;;;;2.27;1.00;;;15.80;68.90;;;;;;4996338;28;20476;-75
2023/10/22 10:28:02;;;;;;;2.37;1.00;;;15.90;67.20;;;;;;4996291;28;20488;-75
2023/10/22 10:30:29;;;;;;;2.17;0.90;;;16.00;67.90;;;;;;4996337;28;20476;-76
2023/10/22 10:32:57;;;;;;;2.30;1.03;;;16.00;67.00;;;;;;4996261;28;20441;-75
2023/10/22 10:35:25;;;;;;;2.33;1.20;;;15.90;66.60;;;;;;4996238;28;20500;-76
2023/10/22 10:38:22;;;;;;;3.73;1.07;;;15.90;66.70;;;;;;4996163;28;20504;-76
2023/10/22 10:40:50;;;;;;;2.03;1.10;;;16.10;67.00;;;;;;4980127;28;20896;-75
2023/10/22 10:43:18;;;;;;;1.70;0.90;;;16.00;65.40;;;;;;4995790;28;20938;-76
2023/10/22 10:46:21;;;;;;;1.40;0.80;;;16.10;67.20;;;;;;4995283;28;20516;-76
2023/10/22 10:48:51;;;;;;;3.27;1.87;;;16.20;65.20;;;;;;4995665;28;20950;-76
2023/10/22 10:51:18;;;;;;;1.90;1.00;;;16.30;65.40;;;;;;4996003;28;20485;-76
2023/10/22 10:54:17;;;;;;;2.00;1.07;;;16.50;65.40;;;;;;4995913;28;20856;-76
2023/10/22 10:56:48;;;;;;;1.83;0.80;;;16.60;63.90;;;;;;4995824;28;20469;-76
2023/10/22 10:59:26;;;;;;;1.60;0.90;;;16.70;63.80;;;;;;4995786;28;20460;-75
2023/10/22 11:02:01;;;;;;;2.47;0.90;;;16.70;65.60;;;;;;4995803;28;20426;-75
2023/10/22 11:04:29;;;;;;;1.80;1.00;;;16.80;64.70;;;;;;4995739;28;20436;-76
2023/10/22 11:06:56;;;;;;;2.20;1.00;;;16.90;65.20;;;;;;4995434;28;20485;-76
2023/10/22 11:09:24;;;;;;;2.13;1.13;;;16.80;63.40;;;;;;4995502;28;20452;-76
2023/10/22 11:11:58;;;;;;;1.50;0.93;;;16.80;64.90;;;;;;4995553;28;20449;-76
2023/10/22 11:14:24;;;;;;;1.60;0.90;;;17.00;64.60;;;;;;4995467;28;20452;-76
2023/10/22 11:16:53;;;;;;;1.53;0.80;;;17.10;63.50;;;;;;4995177;28;20473;-76
2023/10/22 11:19:22;;;;;;;1.70;0.90;;;17.10;63.50;;;;;;4995106;28;20939;-76
2023/10/22 11:21:50;;;;;;;1.60;0.90;;;17.00;63.90;;;;;;4995357;28;20452;-77
2023/10/22 11:24:18;;;;;;;1.73;0.93;;;17.30;64.10;;;;;;4995375;28;20473;-76
2023/10/22 11:26:46;;;;;;;1.60;0.90;;;17.40;63.30;;;;;;4995463;28;21005;-76
2023/10/22 11:29:12;;;;;;;1.50;0.90;;;17.40;61.50;;;;;;4995310;28;20445;-76
2023/10/22 11:31:39;;;;;;;2.07;1.20;;;17.40;62.90;;;;;;4995257;28;20445;-76
2023/10/22 11:34:16;;;;;;;1.77;1.10;;;17.30;61.90;;;;;;4995273;28;20449;-76
2023/10/22 11:36:43;;;;;;;2.43;1.10;;;17.30;61.80;;;;;;4995144;28;20460;-76
2023/10/22 11:39:19;;;;;;;1.90;1.10;;;17.10;62.20;;;;;;4995094;28;20473;-76
2023/10/22 11:41:46;;;;;;;1.70;1.00;;;17.20;61.30;;;;;;4995074;28;20453;-76
2023/10/22 11:44:28;;;;;;;2.23;1.20;;;17.30;61.90;;;;;;4994968;28;20472;-76
2023/10/22 11:46:55;;;;;;;3.10;1.07;;;17.30;62.20;;;;;;4994877;28;20519;-76
2023/10/22 11:49:22;;;;;;;2.07;1.07;;;17.40;61.50;;;;;;4994606;28;20964;-76
2023/10/22 11:51:49;;;;;;;2.83;1.20;;;17.60;62.60;;;;;;4994903;28;20801;-76
2023/10/22 11:54:15;;;;;;;2.17;1.00;;;18.00;59.90;;;;;;4994794;28;20520;-76
2023/10/22 11:56:43;;;;;;;1.73;1.00;;;18.30;59.00;;;;;;4994615;28;20469;-76
2023/10/22 11:59:10;;;;;;;3.00;0.90;;;18.70;58.50;;;;;;4993875;28;20445;-76
2023/10/22 12:01:37;;;;;;;2.30;1.20;;;18.80;57.00;;;;;;4994725;28;20440;-75
2023/10/22 12:04:04;;;;;;;1.90;1.13;;;18.80;57.60;;;;;;4994663;28;20449;-76
2023/10/22 12:06:31;;;;;;;1.53;0.83;;;19.10;57.40;;;;;;4994504;28;20489;-76
2023/10/22 12:08:58;;;;;;;1.83;0.90;;;18.80;56.40;;;;;;4994547;28;20449;-77
2023/10/22 12:11:25;;;;;;;2.17;1.00;;;18.80;57.40;;;;;;4994497;28;20508;-77
2023/10/22 12:13:53;;;;;;;2.10;1.23;;;18.90;56.30;;;;;;4994472;28;20452;-76
2023/10/22 12:16:21;;;;;;;2.70;0.90;;;18.90;55.40;;;;;;4994192;28;20476;-76
2023/10/22 12:18:47;;;;;;;2.40;1.03;;;19.00;56.50;;;;;;4994424;28;20449;-76
2023/10/22 12:21:14;;;;;;;1.60;0.97;;;19.00;55.30;;;;;;4994330;28;20441;-76
2023/10/22 12:23:41;;;;;;;1.70;1.00;;;19.00;55.90;;;;;;4994340;28;20449;-77
2023/10/22 12:26:09;;;;;;;1.93;0.80;;;19.10;55.90;;;;;;4993890;28;21029;-77
2023/10/22 12:28:36;;;;;;;1.63;0.90;;;19.40;55.90;;;;;;4994227;28;20477;-77
2023/10/22 12:31:07;;;;;;;1.43;0.80;;;19.50;54.40;;;;;;4993875;28;20969;-76
2023/10/22 12:33:34;;;;;;;3.23;1.10;;;19.50;54.40;;;;;;4994253;28;20528;-76
2023/10/22 12:36:03;;;;;;;1.93;1.10;;;19.50;55.20;;;;;;4994118;28;20632;-76
2023/10/22 12:38:29;;;;;;;2.00;1.03;;;19.80;54.80;;;;;;4994153;28;20487;-76
2023/10/22 12:40:56;;;;;;;1.77;0.97;;;19.90;53.60;;;;;;4994128;28;20452;-76
2023/10/22 12:43:23;;;;;;;1.90;1.20;;;19.80;53.40;;;;;;4994067;28;20448;-75
2023/10/22 12:45:49;;;;;;;1.70;1.07;;;19.50;54.90;;;;;;4994084;28;20452;-77
2023/10/22 12:48:17;;;;;;;1.60;0.97;;;19.30;53.80;;;;;;4993911;28;20456;-76
2023/10/22 12:50:48;;;;;;;1.93;0.90;;;19.10;53.80;;;;;;4993967;28;20441;-76
2023/10/22 12:53:15;;;;;;;3.30;1.90;;;19.10;54.00;;;;;;4993979;28;20461;-76
2023/10/22 12:55:42;;;;;;;3.00;1.10;;;18.90;55.50;;;;;;4993929;28;20449;-76
2023/10/22 12:58:09;;;;;;;1.70;0.90;;;19.20;55.10;;;;;;4993857;28;20460;-77
2023/10/22 13:00:39;;;;;;;1.60;0.83;;;19.30;54.50;;;;;;4993866;28;20449;-77
2023/10/22 13:03:06;;;;;;;2.33;0.90;;;19.50;55.00;;;;;;4993995;28;20488;-76
2023/10/22 13:05:35;;;;;;;1.83;0.90;;;19.80;53.50;;;;;;4993851;28;20448;-77
2023/10/22 13:08:03;;;;;;;1.70;0.73;;;20.60;52.10;;;;;;4993721;28;20485;-77
2023/10/22 13:10:32;;;;;;;1.47;1.00;;;21.50;50.40;;;;;;4997152;28;20445;-77
2023/10/22 13:12:58;;;;;;;1.57;1.20;;;22.30;49.50;;;;;;4997568;28;20823;-77
2023/10/22 13:15:25;;;;;;;1.80;1.00;;;23.60;48.60;;;;;;4998039;28;20453;-77
2023/10/22 13:17:52;;;;;;;2.00;1.10;;;25.00;44.10;;;;;;4997642;28;20480;-77
2023/10/22 13:20:19;;;;;;;2.40;1.00;;;24.60;44.80;;;;;;4998052;28;20464;-77
2023/10/22 13:22:47;;;;;;;1.77;0.80;;;24.80;44.50;;;;;;4997783;28;20436;-77
2023/10/22 13:25:14;;;;;;;1.80;1.00;;;25.10;43.70;;;;;;4997718;28;20445;-77
2023/10/22 13:27:42;;;;;;;2.23;1.00;;;24.40;43.20;;;;;;4997562;28;20496;-77
2023/10/22 13:30:10;;;;;;;2.33;1.00;;;23.30;46.00;;;;;;4997775;28;20444;-77
2023/10/22 13:32:37;;;;;;;2.00;0.90;;;23.60;46.50;;;;;;4997726;28;20472;-76
2023/10/22 13:35:04;;;;;;;1.63;1.10;;;24.10;45.30;;;;;;4997659;28;20444;-77
2023/10/22 13:37:31;;;;;;;1.93;0.80;;;24.10;45.10;;;;;;4997461;28;20497;-76
2023/10/22 13:39:59;;;;;;;1.50;1.00;;;23.70;45.90;;;;;;4997374;28;20444;-77
2023/10/22 13:42:25;;;;;;;1.50;1.00;;;24.00;46.20;;;;;;4997528;28;20441;-77
2023/10/22 13:44:52;;;;;;;2.10;1.10;;;25.10;44.00;;;;;;4997098;28;20938;-77
2023/10/22 13:47:19;;;;;;;1.47;0.70;;;25.30;44.80;;;;;;4996778;28;20888;-77
2023/10/22 13:49:46;;;;;;;2.07;1.20;;;24.70;43.90;;;;;;4997214;28;20445;-76
2023/10/22 13:52:13;;;;;;;2.00;1.00;;;23.70;45.60;;;;;;4997131;28;20457;-76
2023/10/22 13:54:39;;;;;;;1.30;0.83;;;22.40;47.50;;;;;;4997069;28;20440;-76
2023/10/22 13:57:07;;;;;;;2.00;1.00;;;21.70;49.60;;;;;;4996710;28;21001;-76
2023/10/22 13:59:35;;;;;;;1.53;0.87;;;20.80;51.10;;;;;;4997011;28;20441;-76
2023/10/22 14:02:01;;;;;;;1.60;0.90;;;20.20;52.20;;;;;;4997047;28;20445;-76
2023/10/22 14:04:28;;;;;;;1.97;1.17;;;20.10;53.00;;;;;;4997103;28;20448;-76
2023/10/22 14:06:55;;;;;;;1.90;1.10;;;19.80;53.60;;;;;;4996760;28;20480;-76
2023/10/22 14:09:21;;;;;;;1.50;0.93;;;19.60;53.90;;;;;;4996827;28;20456;-76
2023/10/22 14:11:49;;;;;;;1.60;1.00;;;19.80;53.80;;;;;;4996888;28;20444;-76
2023/10/22 14:14:17;;;;;;;1.70;0.80;;;20.80;52.10;;;;;;4996738;28;20448;-76
2023/10/22 14:16:43;;;;;;;1.60;0.90;;;22.00;50.10;;;;;;4996395;28;20469;-76
2023/10/22 14:19:11;;;;;;;2.40;1.33;;;24.00;46.80;;;;;;4996747;28;20444;-76
2023/10/22 14:21:38;;;;;;;2.20;1.17;;;25.70;44.00;;;;;;4995544;28;20459;-76
2023/10/22 14:24:05;;;;;;;1.70;0.90;;;27.50;41.20;;;;;;4996788;28;20457;-76
2023/10/22 14:26:31;;;;;;;1.50;0.90;;;27.40;40.00;;;;;;4996548;28;20465;-77
2023/10/22 14:28:58;;;;;;;2.10;1.10;;;27.30;40.50;;;;;;4996434;28;20449;-76
2023/10/22 14:31:26;;;;;;;1.60;0.90;;;26.80;41.10;;;;;;4996090;28;20448;-76
2023/10/22 14:33:53;;;;;;;2.40;1.13;;;26.10;42.50;;;;;;4996406;28;20565;-76
2023/10/22 14:36:19;;;;;;;1.97;1.10;;;26.10;43.00;;;;;;4996304;28;20488;-76
2023/10/22 14:38:46;;;;;;;1.70;1.00;;;26.00;43.60;;;;;;4996346;28;20460;-76
2023/10/22 14:41:13;;;;;;;2.00;1.00;;;25.10;43.90;;;;;;4996166;28;20452;-76
2023/10/22 14:43:40;;;;;;;1.70;1.00;;;24.60;44.80;;;;;;4996492;28;20453;-76
2023/10/22 14:46:08;;;;;;;1.70;1.00;;;23.70;46.30;;;;;;4996186;28;20803;-76
2023/10/22 14:48:36;;;;;;;1.33;0.83;;;23.20;47.60;;;;;;4996084;28;20481;-76
2023/10/22 14:51:03;;;;;;;1.70;0.90;;;22.80;47.60;;;;;;4996093;28;20448;-76
2023/10/22 14:53:31;;;;;;;1.80;1.00;;;21.90;48.70;;;;;;4995721;28;20962;-76
2023/10/22 14:55:58;;;;;;;2.50;1.20;;;21.40;49.10;;;;;;4995595;28;20861;-76
2023/10/22 14:58:25;;;;;;;1.60;0.90;;;20.60;51.10;;;;;;4995851;28;20437;-76
2023/10/22 15:00:52;;;;;;;1.93;1.20;;;20.20;51.60;;;;;;4995845;28;20451;-76
2023/10/22 15:03:19;;;;;;;1.40;0.80;;;19.70;52.90;;;;;;4995459;28;20946;-76
2023/10/22 15:05:48;;;;;;;1.80;1.03;;;19.50;53.90;;;;;;4995551;28;20938;-76
2023/10/22 15:08:15;;;;;;;1.60;0.80;;;19.20;53.80;;;;;;4995520;28;20488;-76
2023/10/22 15:10:43;;;;;;;1.80;0.90;;;19.10;55.40;;;;;;4995565;28;21013;-76
2023/10/22 15:13:11;;;;;;;1.60;0.90;;;19.10;54.80;;;;;;4995606;28;20445;-76
2023/10/22 15:15:38;;;;;;;1.80;0.90;;;18.90;55.30;;;;;;4995537;28;20448;-76
2023/10/22 15:18:05;;;;;;;1.50;1.00;;;18.90;55.90;;;;;;4995559;28;20994;-76
2023/10/22 15:20:36;;;;;;;2.37;0.90;;;18.90;55.80;;;;;;4995529;28;20445;-76
2023/10/22 15:23:05;;;;;;;1.63;0.80;;;18.90;56.10;;;;;;4995505;28;20461;-76
2023/10/22 15:25:32;;;;;;;1.83;0.90;;;18.80;57.00;;;;;;4995387;28;20457;-76
2023/10/22 15:27:59;;;;;;;1.73;1.10;;;18.80;56.90;;;;;;4995168;28;20515;-76
2023/10/22 15:30:26;;;;;;;2.10;1.10;;;18.70;56.90;;;;;;4995334;28;20448;-76
2023/10/22 15:32:53;;;;;;;2.00;1.00;;;18.60;57.00;;;;;;4995028;28;20484;-76
2023/10/22 15:35:20;;;;;;;1.80;0.90;;;18.60;58.70;;;;;;4995243;28;20447;-76
2023/10/22 15:37:47;;;;;;;1.80;0.90;;;18.60;58.00;;;;;;4994730;28;21010;-76
2023/10/22 15:40:15;;;;;;;1.77;0.90;;;18.60;58.30;;;;;;4995111;28;20496;-76
2023/10/22 15:42:43;;;;;;;2.13;0.90;;;18.50;57.60;;;;;;4995110;28;20440;-76
2023/10/22 15:45:10;;;;;;;1.70;0.80;;;18.40;58.60;;;;;;4994719;28;20939;-76
2023/10/22 15:47:36;;;;;;;2.37;1.37;;;18.40;59.30;;;;;;4994908;28;20489;-76
2023/10/22 15:50:04;;;;;;;1.60;0.87;;;18.40;58.90;;;;;;4994685;28;20806;-76
2023/10/22 15:52:30;;;;;;;1.90;0.90;;;18.30;59.50;;;;;;4994635;28;20445;-76
2023/10/22 15:54:57;;;;;;;1.97;1.43;;;18.20;60.30;;;;;;4994891;28;20457;-76
2023/10/22 15:57:25;;;;;;;2.33;1.10;;;18.20;61.00;;;;;;4994715;28;20461;-76
2023/10/22 15:59:52;;;;;;;2.73;1.03;;;18.10;61.10;;;;;;4994764;28;20449;-76
2023/10/22 16:02:19;;;;;;;2.70;0.90;;;18.00;61.10;;;;;;4994724;28;20495;-76
2023/10/22 16:04:45;;;;;;;1.60;0.80;;;17.90;61.80;;;;;;4994735;28;20445;-76
2023/10/22 16:07:12;;;;;;;1.87;1.03;;;17.90;62.80;;;;;;4994492;28;20465;-76
2023/10/22 16:09:39;;;;;;;2.17;1.03;;;17.80;63.20;;;;;;4994591;28;20456;-76
2023/10/22 16:12:06;;;;;;;2.30;1.37;;;17.70;63.70;;;;;;4994551;28;20441;-76
2023/10/22 16:14:35;;;;;;;2.00;1.30;;;17.60;64.10;;;;;;4994560;28;20829;-76
2023/10/22 16:17:04;;;;;;;2.00;1.30;;;17.50;64.80;;;;;;5046845;23;20575;-74
2023/10/22 16:19:31;;;;;;;2.47;1.40;;;17.40;65.00;;;;;;4995293;28;20445;-74
2023/10/22 16:21:57;;;;;;;3.37;1.43;;;17.30;65.70;;;;;;4995241;28;20453;-74
2023/10/22 16:24:24;;;;;;;2.00;1.10;;;17.20;66.10;;;;;;4995084;28;20449;-74
2023/10/22 16:26:52;;;;;;;1.60;0.90;;;17.10;66.40;;;;;;4995131;28;20515;-72
2023/10/22 16:29:18;;;;;;;2.47;0.97;;;17.00;66.70;;;;;;4995221;28;20489;-72
2023/10/22 16:31:46;;;;;;;3.10;1.20;;;16.80;67.50;;;;;;4994935;28;20511;-72
2023/10/22 16:34:13;;;;;;;1.87;0.93;;;16.70;67.80;;;;;;4994971;28;20448;-72
2023/10/22 16:36:41;;;;;;;1.43;1.03;;;16.60;68.00;;;;;;4994885;28;20465;-72
2023/10/22 16:39:07;;;;;;;2.33;1.10;;;16.50;68.00;;;;;;4994557;28;20931;-72
2023/10/22 16:41:34;;;;;;;2.20;1.23;;;16.40;68.40;;;;;;4995016;28;20453;-72
2023/10/22 16:44:01;;;;;;;1.97;1.10;;;16.40;68.70;;;;;;4994395;28;20447;-72
2023/10/22 16:46:27;;;;;;;2.80;1.23;;;16.30;68.80;;;;;;4994792;28;20448;-72
2023/10/22 16:48:56;;;;;;;1.77;1.00;;;16.20;68.90;;;;;;4994692;28;20472;-72
2023/10/22 16:51:23;;;;;;;2.30;1.20;;;16.10;69.00;;;;;;4994813;28;20484;-72